createdAt,value
2018-09-27T00:01:55.522Z,12.60
2018-09-27T00:04:25.364Z,12.60
2018-09-27T00:06:55.062Z,12.60
2018-09-27T00:09:24.889Z,12.50
2018-09-27T00:11:54.515Z,12.50
2018-09-27T00:14:24.290Z,12.50
2018-09-27T00:16:53.986Z,12.50
2018-09-27T00:19:23.745Z,12.40
2018-09-27T00:21:53.363Z,12.40
2018-09-27T00:24:23.084Z,12.40
2018-09-27T00:26:52.602Z,12.40
2018-09-27T00:29:22.265Z,12.40
2018-09-27T00:31:51.918Z,12.30
2018-09-27T00:34:21.716Z,12.30
2018-09-27T00:36:51.350Z,12.30
2018-09-27T00:39:20.984Z,12.20
2018-09-27T00:41:50.529Z,12.20
2018-09-27T00:44:20.116Z,12.20
2018-09-27T00:46:49.701Z,12.20
2018-09-27T00:49:19.353Z,12.20
2018-09-27T00:51:49.612Z,12.10
2018-09-27T00:54:19.399Z,12.10
2018-09-27T00:56:49.231Z,12.10
2018-09-27T00:59:19.078Z,12.10
2018-09-27T01:01:48.921Z,12.00
2018-09-27T01:04:18.774Z,12.00
2018-09-27T01:06:48.510Z,12.00
2018-09-27T01:09:18.209Z,12.00
2018-09-27T01:11:47.856Z,12.00
2018-09-27T01:14:17.742Z,12.00
2018-09-27T01:16:47.478Z,12.00
2018-09-27T01:19:17.354Z,12.10
2018-09-27T01:21:47.129Z,12.00
2018-09-27T01:24:16.937Z,12.00
2018-09-27T01:26:46.682Z,12.00
2018-09-27T01:29:23.718Z,12.10
2018-09-27T01:31:56.254Z,12.10
2018-09-27T01:34:26.094Z,12.10
2018-09-27T01:36:55.870Z,12.10
2018-09-27T01:39:25.705Z,12.10
2018-09-27T01:41:55.551Z,12.00
2018-09-27T01:44:25.378Z,12.00
2018-09-27T01:46:55.314Z,12.00
2018-09-27T01:49:25.193Z,12.00
2018-09-27T01:51:54.973Z,11.90
2018-09-27T01:54:24.741Z,11.90
2018-09-27T01:56:54.627Z,11.90
2018-09-27T01:59:24.373Z,11.90
2018-09-27T02:01:54.241Z,11.90
2018-09-27T02:04:24.069Z,11.90
2018-09-27T02:06:53.808Z,11.80
2018-09-27T02:09:23.497Z,11.80
2018-09-27T02:11:53.229Z,11.80
2018-09-27T02:14:22.997Z,11.70
2018-09-27T02:16:52.697Z,11.70
2018-09-27T02:19:22.539Z,11.70
2018-09-27T02:21:52.436Z,11.60
2018-09-27T02:24:22.382Z,11.60
2018-09-27T02:26:52.146Z,11.60
2018-09-27T02:29:21.937Z,11.60
2018-09-27T02:31:51.659Z,11.50
2018-09-27T02:34:21.515Z,11.50
2018-09-27T02:36:51.337Z,11.50
2018-09-27T02:39:21.025Z,11.50
2018-09-27T02:41:50.824Z,11.40
2018-09-27T02:44:20.607Z,11.40
2018-09-27T02:46:50.372Z,11.40
2018-09-27T02:49:20.055Z,11.40
2018-09-27T02:51:49.910Z,11.40
2018-09-27T02:54:19.756Z,11.40
2018-09-27T02:56:49.475Z,11.40
2018-09-27T02:59:19.300Z,11.40
2018-09-27T03:01:49.103Z,11.30
2018-09-27T03:04:18.822Z,11.40
2018-09-27T03:06:48.576Z,11.30
2018-09-27T03:09:18.349Z,11.30
2018-09-27T03:11:48.106Z,11.30
2018-09-27T03:14:17.970Z,11.40
2018-09-27T03:16:47.770Z,11.30
2018-09-27T03:19:17.607Z,11.30
2018-09-27T03:21:47.335Z,11.30
2018-09-27T03:24:16.976Z,11.30
2018-09-27T03:26:46.777Z,11.30
2018-09-27T03:29:16.605Z,11.30
2018-09-27T03:31:46.405Z,11.30
2018-09-27T03:34:16.144Z,11.30
2018-09-27T03:36:45.981Z,11.30
2018-09-27T03:39:15.785Z,11.30
2018-09-27T03:41:45.437Z,11.30
2018-09-27T03:44:15.169Z,11.30
2018-09-27T03:46:44.974Z,11.30
2018-09-27T03:49:14.684Z,11.30
2018-09-27T03:51:44.359Z,11.30
2018-09-27T03:54:14.183Z,11.30
2018-09-27T03:56:43.981Z,11.30
2018-09-27T03:59:13.838Z,11.30
2018-09-27T04:01:43.710Z,11.30
2018-09-27T04:04:13.394Z,11.20
2018-09-27T04:06:43.232Z,11.20
2018-09-27T04:09:13.092Z,11.20
2018-09-27T04:11:42.904Z,11.20
2018-09-27T04:14:12.610Z,11.20
2018-09-27T04:16:42.418Z,11.10
2018-09-27T04:19:12.334Z,11.10
2018-09-27T04:21:42.065Z,11.10
2018-09-27T04:24:11.841Z,11.10
2018-09-27T04:26:41.638Z,11.10
2018-09-27T04:29:11.491Z,11.10
2018-09-27T04:31:41.229Z,11.00
2018-09-27T04:34:10.953Z,11.00
2018-09-27T04:36:40.661Z,11.00
2018-09-27T04:39:12.373Z,11.00
2018-09-27T04:41:42.222Z,10.90
2018-09-27T04:44:12.034Z,10.90
2018-09-27T04:46:41.919Z,10.90
2018-09-27T04:49:11.692Z,10.90
2018-09-27T04:51:41.562Z,10.90
2018-09-27T04:54:11.249Z,10.90
2018-09-27T04:56:40.997Z,10.90
2018-09-27T04:59:10.789Z,10.90
2018-09-27T05:01:40.548Z,10.90
2018-09-27T05:04:10.395Z,10.90
2018-09-27T05:06:40.153Z,10.90
2018-09-27T05:09:10.488Z,10.90
2018-09-27T05:11:40.315Z,10.90
2018-09-27T05:14:10.047Z,10.90
2018-09-27T05:16:39.893Z,10.80
2018-09-27T05:19:09.645Z,10.80
2018-09-27T05:21:39.565Z,10.80
2018-09-27T05:24:09.296Z,10.80
2018-09-27T05:26:39.068Z,10.80
2018-09-27T05:29:08.931Z,10.70
2018-09-27T05:31:38.663Z,10.70
2018-09-27T05:34:08.479Z,10.70
2018-09-27T05:36:38.268Z,10.60
2018-09-27T05:39:10.335Z,10.60
2018-09-27T05:41:40.203Z,10.60
2018-09-27T05:44:10.259Z,10.50
2018-09-27T05:46:40.158Z,10.50
2018-09-27T05:49:10.019Z,10.40
2018-09-27T05:51:39.944Z,10.40
2018-09-27T05:54:09.775Z,10.40
2018-09-27T05:56:39.615Z,10.40
2018-09-27T05:59:09.533Z,10.40
2018-09-27T06:01:39.401Z,10.40
2018-09-27T06:04:09.232Z,10.50
2018-09-27T06:06:39.166Z,10.40
2018-09-27T06:09:12.111Z,10.50
2018-09-27T06:11:41.931Z,10.50
2018-09-27T06:14:11.773Z,10.50
2018-09-27T06:16:41.565Z,10.50
2018-09-27T06:19:11.334Z,10.50
2018-09-27T06:21:41.232Z,10.60
2018-09-27T06:24:10.974Z,10.60
2018-09-27T06:26:40.850Z,10.70
2018-09-27T06:29:10.639Z,10.80
2018-09-27T06:31:40.437Z,10.80
2018-09-27T06:34:10.238Z,10.90
2018-09-27T06:36:40.038Z,11.00
2018-09-27T06:39:11.318Z,11.00
2018-09-27T06:41:41.188Z,11.10
2018-09-27T06:44:11.258Z,11.20
2018-09-27T06:46:41.047Z,11.30
2018-09-27T06:49:10.791Z,11.40
2018-09-27T06:51:40.708Z,11.50
2018-09-27T06:54:10.448Z,11.70
2018-09-27T06:56:40.406Z,11.80
2018-09-27T06:59:10.220Z,12.00
2018-09-27T07:01:40.100Z,12.20
2018-09-27T07:04:10.066Z,12.50
2018-09-27T07:06:39.833Z,12.70
2018-09-27T07:09:12.968Z,13.00
2018-09-27T07:11:42.650Z,13.20
2018-09-27T07:14:12.417Z,13.60
2018-09-27T07:16:42.249Z,13.80
2018-09-27T07:19:11.984Z,14.10
2018-09-27T07:21:41.876Z,14.40
2018-09-27T07:24:11.518Z,14.70
2018-09-27T07:26:41.358Z,15.00
2018-09-27T07:29:11.174Z,15.30
2018-09-27T07:31:41.054Z,15.50
2018-09-27T07:34:10.826Z,15.80
2018-09-27T07:36:40.618Z,16.00
2018-09-27T07:39:12.238Z,16.20
2018-09-27T07:41:42.143Z,16.50
2018-09-27T07:44:12.589Z,16.70
2018-09-27T07:46:42.399Z,16.90
2018-09-27T07:49:12.121Z,17.20
2018-09-27T07:51:41.911Z,17.40
2018-09-27T07:54:11.681Z,17.60
2018-09-27T07:56:41.512Z,17.90
2018-09-27T07:59:11.328Z,18.10
2018-09-27T08:01:41.227Z,18.30
2018-09-27T08:04:11.229Z,18.60
2018-09-27T08:06:41.108Z,18.70
2018-09-27T08:09:10.805Z,18.90
2018-09-27T08:11:40.626Z,19.10
2018-09-27T08:14:10.400Z,19.20
2018-09-27T08:16:40.165Z,19.30
2018-09-27T08:19:10.082Z,19.50
2018-09-27T08:21:39.874Z,19.60
2018-09-27T08:24:09.779Z,19.80
2018-09-27T08:26:39.548Z,19.90
2018-09-27T08:29:09.291Z,20.10
2018-09-27T08:31:39.119Z,20.30
2018-09-27T08:34:08.911Z,20.40
2018-09-27T08:36:38.831Z,20.50
2018-09-27T08:39:11.320Z,20.60
2018-09-27T08:41:41.217Z,20.70
2018-09-27T08:44:12.113Z,20.80
2018-09-27T08:46:43.250Z,21.00
2018-09-27T08:49:13.407Z,21.20
2018-09-27T08:51:43.319Z,21.30
2018-09-27T08:54:13.143Z,21.50
2018-09-27T08:56:43.067Z,21.60
2018-09-27T08:59:12.900Z,21.80
2018-09-27T09:01:42.875Z,22.10
2018-09-27T09:04:12.596Z,22.30
2018-09-27T09:06:43.100Z,22.50
2018-09-27T09:09:14.017Z,22.70
2018-09-27T09:11:44.274Z,22.90
2018-09-27T09:14:14.253Z,23.20
2018-09-27T09:16:44.293Z,23.40
2018-09-27T09:19:14.315Z,23.60
2018-09-27T09:21:44.841Z,23.70
2018-09-27T09:24:14.739Z,23.80
2018-09-27T09:26:44.773Z,24.00
2018-09-27T09:29:15.337Z,24.00
2018-09-27T09:31:45.241Z,24.10
2018-09-27T09:34:15.712Z,24.20
2018-09-27T09:36:45.529Z,24.30
2018-09-27T09:39:15.379Z,24.40
2018-09-27T09:41:45.515Z,24.50
2018-09-27T09:44:15.367Z,24.50
2018-09-27T09:46:45.219Z,24.60
2018-09-27T09:49:15.083Z,24.60
2018-09-27T09:51:45.034Z,24.70
2018-09-27T09:54:16.020Z,24.80
2018-09-27T09:56:45.891Z,24.90
2018-09-27T09:59:15.977Z,25.00
2018-09-27T10:01:46.001Z,25.10
2018-09-27T10:04:15.862Z,25.20
2018-09-27T10:06:45.886Z,25.30
2018-09-27T10:09:15.725Z,25.40
2018-09-27T10:11:45.506Z,25.40
2018-09-27T10:14:15.400Z,25.40
2018-09-27T10:16:45.258Z,25.50
2018-09-27T10:19:15.167Z,25.60
2018-09-27T10:21:45.216Z,25.60
2018-09-27T10:24:15.129Z,25.60
2018-09-27T10:26:45.023Z,25.70
2018-09-27T10:29:14.930Z,25.80
2018-09-27T10:31:44.775Z,25.90
2018-09-27T10:34:14.673Z,26.00
2018-09-27T10:36:44.503Z,26.10
2018-09-27T10:39:14.324Z,26.20
2018-09-27T10:41:44.426Z,26.20
2018-09-27T10:44:14.726Z,26.30
2018-09-27T10:46:44.698Z,26.30
2018-09-27T10:49:14.725Z,26.40
2018-09-27T10:51:44.670Z,26.40
2018-09-27T10:54:15.076Z,26.40
2018-09-27T10:56:45.032Z,26.40
2018-09-27T10:59:14.901Z,26.50
2018-09-27T11:01:44.850Z,26.50
2018-09-27T11:04:14.814Z,26.50
2018-09-27T11:06:44.757Z,26.60
2018-09-27T11:09:14.751Z,26.60
2018-09-27T11:11:44.616Z,26.60
2018-09-27T11:14:14.434Z,26.60
2018-09-27T11:16:44.370Z,26.60
2018-09-27T11:19:14.322Z,26.70
2018-09-27T11:21:44.205Z,26.70
2018-09-27T11:24:14.986Z,26.90
2018-09-27T11:26:44.986Z,27.00
2018-09-27T11:29:20.028Z,27.10
2018-09-27T11:31:55.056Z,27.20
2018-09-27T11:34:25.036Z,27.30
2018-09-27T11:36:54.773Z,27.40
2018-09-27T11:39:24.524Z,27.50
2018-09-27T11:41:54.372Z,27.60
2018-09-27T11:44:24.299Z,27.80
2018-09-27T11:46:54.170Z,27.90
2018-09-27T11:49:24.098Z,28.00
2018-09-27T11:51:53.826Z,28.20
2018-09-27T11:54:23.649Z,28.30
2018-09-27T11:56:53.629Z,28.40
2018-09-27T11:59:23.490Z,28.40
2018-09-27T12:01:53.428Z,28.40
2018-09-27T12:04:23.346Z,28.40
2018-09-27T12:06:53.251Z,28.50
2018-09-27T12:09:23.251Z,28.50
2018-09-27T12:11:53.305Z,28.60
2018-09-27T12:14:24.166Z,28.70
2018-09-27T12:16:54.339Z,28.80
2018-09-27T12:19:24.205Z,28.90
2018-09-27T12:21:54.039Z,28.90
2018-09-27T12:24:23.881Z,29.00
2018-09-27T12:26:53.754Z,29.10
2018-09-27T12:29:23.758Z,29.10
2018-09-27T12:31:53.715Z,29.30
2018-09-27T12:34:23.885Z,29.40
2018-09-27T12:36:53.694Z,29.40
2018-09-27T12:39:23.569Z,29.40
2018-09-27T12:41:53.403Z,29.40
2018-09-27T12:44:23.068Z,29.40
2018-09-27T12:46:52.912Z,29.40
2018-09-27T12:49:22.711Z,29.30
2018-09-27T12:51:52.682Z,29.30
2018-09-27T12:54:22.510Z,29.30
2018-09-27T12:56:52.324Z,29.20
2018-09-27T12:59:22.296Z,29.20
2018-09-27T13:01:52.790Z,29.10
2018-09-27T13:04:22.376Z,28.90
2018-09-27T13:06:52.401Z,28.90
2018-09-27T13:09:22.506Z,28.90
2018-09-27T13:11:52.343Z,28.90
2018-09-27T13:14:22.471Z,28.90
2018-09-27T13:16:52.328Z,28.90
2018-09-27T13:19:22.165Z,28.90
2018-09-27T13:21:52.002Z,28.90
2018-09-27T13:24:21.887Z,28.90
2018-09-27T13:26:51.739Z,28.90
2018-09-27T13:29:21.854Z,28.90
2018-09-27T13:31:51.838Z,28.90
2018-09-27T13:34:21.615Z,28.80
2018-09-27T13:36:51.427Z,28.80
2018-09-27T13:39:21.294Z,28.80
2018-09-27T13:41:51.323Z,28.70
2018-09-27T13:44:21.282Z,28.70
2018-09-27T13:46:51.157Z,28.70
2018-09-27T13:49:20.968Z,28.60
2018-09-27T13:51:50.875Z,28.70
2018-09-27T13:54:20.661Z,28.70
2018-09-27T13:56:50.580Z,28.70
2018-09-27T13:59:20.422Z,28.70
2018-09-27T14:01:50.541Z,28.70
2018-09-27T14:04:20.403Z,28.70
2018-09-27T14:06:50.239Z,28.70
2018-09-27T14:09:20.147Z,28.70
2018-09-27T14:11:49.954Z,28.70
2018-09-27T14:14:19.999Z,28.80
2018-09-27T14:16:50.015Z,28.80
2018-09-27T14:19:19.854Z,28.80
2018-09-27T14:21:49.833Z,28.80
2018-09-27T14:24:19.746Z,28.80
2018-09-27T14:26:49.622Z,28.90
2018-09-27T14:29:19.457Z,28.90
2018-09-27T14:31:49.403Z,29.00
2018-09-27T14:34:19.312Z,29.10
2018-09-27T14:36:49.566Z,29.10
2018-09-27T14:39:19.351Z,29.00
2018-09-27T14:41:49.317Z,29.00
2018-09-27T14:44:19.230Z,29.00
2018-09-27T14:46:49.135Z,28.90
2018-09-27T14:49:19.272Z,28.90
2018-09-27T14:51:49.156Z,28.90
2018-09-27T14:54:19.228Z,28.80
2018-09-27T14:56:49.584Z,28.80
2018-09-27T14:59:19.643Z,28.70
2018-09-27T15:01:49.538Z,28.70
2018-09-27T15:04:19.414Z,28.70
2018-09-27T15:06:49.308Z,28.60
2018-09-27T15:09:19.205Z,28.60
2018-09-27T15:11:49.747Z,28.60
2018-09-27T15:14:19.845Z,28.70
2018-09-27T15:16:50.027Z,28.60
2018-09-27T15:19:19.952Z,28.70
2018-09-27T15:21:49.770Z,28.70
2018-09-27T15:24:20.696Z,28.80
2018-09-27T15:26:50.607Z,28.80
2018-09-27T15:29:20.480Z,28.80
2018-09-27T15:31:50.595Z,28.80
2018-09-27T15:34:20.759Z,28.90
2018-09-27T15:36:50.741Z,28.90
2018-09-27T15:39:20.673Z,28.90
2018-09-27T15:41:50.621Z,28.90
2018-09-27T15:44:20.573Z,28.80
2018-09-27T15:46:50.467Z,28.90
2018-09-27T15:49:20.297Z,28.80
2018-09-27T15:51:50.163Z,28.60
2018-09-27T15:54:20.049Z,28.60
2018-09-27T15:56:49.875Z,28.50
2018-09-27T15:59:19.785Z,28.40
2018-09-27T16:01:49.917Z,28.20
2018-09-27T16:04:19.841Z,28.10
2018-09-27T16:06:49.973Z,28.00
2018-09-27T16:09:19.885Z,28.00
2018-09-27T16:11:49.707Z,27.80
2018-09-27T16:14:19.805Z,27.70
2018-09-27T16:16:49.664Z,27.60
2018-09-27T16:19:23.747Z,27.60
2018-09-27T16:21:54.663Z,27.60
2018-09-27T16:24:24.667Z,27.50
2018-09-27T16:26:54.616Z,27.40
2018-09-27T16:32:12.257Z,27.30
2018-09-27T16:37:36.486Z,27.10
2018-09-27T16:41:04.425Z,27.00
2018-09-27T16:43:34.933Z,27.00
2018-09-27T16:46:07.374Z,26.90
2018-09-27T16:48:38.550Z,26.80
2018-09-27T16:51:09.078Z,26.60
2018-09-27T16:53:39.292Z,26.50
2018-09-27T16:56:09.441Z,26.40
2018-09-27T16:58:39.441Z,26.20
2018-09-27T17:01:09.337Z,26.10
2018-09-27T17:03:39.227Z,25.90
2018-09-27T17:06:09.095Z,25.70
2018-09-27T17:08:39.019Z,25.50
2018-09-27T17:11:08.768Z,25.30
2018-09-27T17:13:38.746Z,25.00
2018-09-27T17:16:09.660Z,24.80
2018-09-27T17:18:39.527Z,24.50
2018-09-27T17:21:09.395Z,24.30
2018-09-27T17:23:39.364Z,24.10
2018-09-27T17:26:09.232Z,23.80
2018-09-27T17:28:39.102Z,23.60
2018-09-27T17:31:09.537Z,23.40
2018-09-27T17:33:39.449Z,23.20
2018-09-27T17:36:09.220Z,23.00
2018-09-27T17:38:39.091Z,22.80
2018-09-27T17:41:09.435Z,22.50
2018-09-27T17:43:39.308Z,22.40
2018-09-27T17:46:09.211Z,22.10
2018-09-27T17:48:38.943Z,22.00
2018-09-27T17:51:08.841Z,21.80
2018-09-27T17:53:38.805Z,21.60
2018-09-27T17:56:08.791Z,21.50
2018-09-27T17:58:38.783Z,21.30
2018-09-27T18:01:08.715Z,21.10
2018-09-27T18:03:38.582Z,21.00
2018-09-27T18:06:08.452Z,20.80
2018-09-27T18:08:38.486Z,20.70
2018-09-27T18:11:08.254Z,20.60
2018-09-27T18:13:38.189Z,20.40
2018-09-27T18:16:08.106Z,20.30
2018-09-27T18:18:38.057Z,20.10
2018-09-27T18:21:08.074Z,20.00
2018-09-27T18:23:37.908Z,19.80
2018-09-27T18:26:07.884Z,19.70
2018-09-27T18:28:37.837Z,19.60
2018-09-27T18:31:07.723Z,19.40
2018-09-27T18:33:37.584Z,19.30
2018-09-27T18:36:07.701Z,19.20
2018-09-27T18:38:37.568Z,19.00
2018-09-27T18:41:07.391Z,18.90
2018-09-27T18:43:37.129Z,18.80
2018-09-27T18:46:07.059Z,18.60
2018-09-27T18:48:36.934Z,18.50
2018-09-27T18:51:07.121Z,18.40
2018-09-27T18:53:37.015Z,18.30
2018-09-27T18:56:06.882Z,18.20
2018-09-27T18:58:36.874Z,18.00
2018-09-27T19:01:06.945Z,17.90
2018-09-27T19:03:36.788Z,17.90
2018-09-27T19:06:06.620Z,17.80
2018-09-27T19:08:37.211Z,17.70
2018-09-27T19:11:07.256Z,17.60
2018-09-27T19:13:37.177Z,17.50
2018-09-27T19:16:07.250Z,17.40
2018-09-27T19:18:36.984Z,17.30
2018-09-27T19:21:06.995Z,17.20
2018-09-27T19:23:36.755Z,17.10
2018-09-27T19:26:06.777Z,17.10
2018-09-27T19:28:36.760Z,16.90
2018-09-27T19:31:06.684Z,16.90
2018-09-27T19:33:36.508Z,16.80
2018-09-27T19:36:06.379Z,16.70
2018-09-27T19:38:36.495Z,16.70
2018-09-27T19:41:06.436Z,16.70
2018-09-27T19:43:36.368Z,16.70
2018-09-27T19:46:06.311Z,16.70
2018-09-27T19:48:36.258Z,16.80
2018-09-27T19:51:06.516Z,16.80
2018-09-27T19:53:36.565Z,16.80
2018-09-27T19:56:06.506Z,16.90
2018-09-27T19:58:36.514Z,16.90
2018-09-27T20:01:06.521Z,16.90
2018-09-27T20:03:36.454Z,16.90
2018-09-27T20:06:06.373Z,16.90
2018-09-27T20:08:36.183Z,16.90
2018-09-27T20:11:05.959Z,16.90
2018-09-27T20:13:35.797Z,16.90
2018-09-27T20:16:05.680Z,16.80
2018-09-27T20:18:35.581Z,16.80
2018-09-27T20:21:05.442Z,16.70
2018-09-27T20:23:35.350Z,16.70
2018-09-27T20:26:05.207Z,16.60
2018-09-27T20:28:35.162Z,16.60
2018-09-27T20:31:05.105Z,16.50
2018-09-27T20:33:44.882Z,16.40
2018-09-27T20:36:14.803Z,16.30
2018-09-27T20:38:44.635Z,16.20
2018-09-27T20:41:14.538Z,16.20
2018-09-27T20:43:44.390Z,16.10
2018-09-27T20:46:16.848Z,16.10
2018-09-27T20:48:47.638Z,16.00
2018-09-27T20:51:17.558Z,15.90
2018-09-27T20:53:48.232Z,15.80
2018-09-27T20:56:19.538Z,15.70
2018-09-27T20:58:49.506Z,15.60
2018-09-27T21:01:19.447Z,15.60
2018-09-27T21:03:49.982Z,15.50
2018-09-27T21:06:20.370Z,15.40
2018-09-27T21:08:50.139Z,15.40
2018-09-27T21:11:20.114Z,15.30
2018-09-27T21:13:50.134Z,15.20
2018-09-27T21:16:19.989Z,15.20
2018-09-27T21:18:50.478Z,15.10
2018-09-27T21:21:20.380Z,15.00
2018-09-27T21:23:50.214Z,14.90
2018-09-27T21:26:20.021Z,14.90
2018-09-27T21:28:50.116Z,14.80
2018-09-27T21:31:19.937Z,14.70
2018-09-27T21:33:49.800Z,14.70
2018-09-27T21:36:19.740Z,14.60
2018-09-27T21:38:49.655Z,14.60
2018-09-27T21:41:19.477Z,14.50
2018-09-27T21:43:51.224Z,14.40
2018-09-27T21:46:21.150Z,14.30
2018-09-27T21:48:50.944Z,14.30
2018-09-27T21:51:20.861Z,14.20
2018-09-27T21:53:50.734Z,14.10
2018-09-27T21:56:20.560Z,14.10
2018-09-27T21:58:50.364Z,14.00
2018-09-27T22:01:20.331Z,14.00
2018-09-27T22:03:50.161Z,13.90
2018-09-27T22:06:19.993Z,13.90
2018-09-27T22:08:49.843Z,13.80
2018-09-27T22:11:19.733Z,13.80
2018-09-27T22:13:49.565Z,13.80
2018-09-27T22:16:19.331Z,13.70
2018-09-27T22:18:49.233Z,13.70
2018-09-27T22:21:19.053Z,13.70
2018-09-27T22:23:48.874Z,13.60
2018-09-27T22:26:18.881Z,13.60
2018-09-27T22:28:48.697Z,13.60
2018-09-27T22:31:18.490Z,13.60
2018-09-27T22:33:48.432Z,13.50
2018-09-27T22:36:18.307Z,13.50
2018-09-27T22:38:48.131Z,13.40
2018-09-27T22:41:18.177Z,13.40
2018-09-27T22:43:48.087Z,13.40
2018-09-27T22:46:17.764Z,13.40
2018-09-27T22:48:47.662Z,13.30
2018-09-27T22:51:17.457Z,13.30
2018-09-27T22:53:47.240Z,13.20
2018-09-27T22:56:17.086Z,13.20
2018-09-27T22:58:47.026Z,13.20
2018-09-27T23:01:16.790Z,13.10
2018-09-27T23:03:46.535Z,13.10
2018-09-27T23:06:16.379Z,13.10
2018-09-27T23:08:46.210Z,13.00
2018-09-27T23:11:16.163Z,13.00
2018-09-27T23:13:45.947Z,12.90
2018-09-27T23:16:15.879Z,12.90
2018-09-27T23:18:45.638Z,12.90
2018-09-27T23:21:15.426Z,12.80
2018-09-27T23:23:45.225Z,12.70
2018-09-27T23:26:15.051Z,12.70
2018-09-27T23:28:44.954Z,12.70
2018-09-27T23:31:14.921Z,12.70
2018-09-27T23:33:44.763Z,12.60
2018-09-27T23:36:14.591Z,12.60
2018-09-27T23:38:45.418Z,12.60
2018-09-27T23:41:15.360Z,12.50
2018-09-27T23:43:45.069Z,12.40
2018-09-27T23:46:14.917Z,12.40
2018-09-27T23:48:44.793Z,12.40
2018-09-27T23:51:14.547Z,12.40
2018-09-27T23:53:44.343Z,12.40
2018-09-27T23:56:14.229Z,12.40
2018-09-27T23:58:44.243Z,12.40
